Terminal Aerodrome Forecast
Issued by NWS

Home | Current Version | Previous Version | Text Only | Print | Product List | Glossary On
Versions: 1 2 3 4 5 6 7 8 9 10 11 12 13 14
000
FTPA31 PHFO 291727
TAFHJH
TAF
PHJH 291727Z 2918/3018 VRB04KT P6SM FEW035
     FM292000 28008KT P6SM FEW030 SCT050
     FM300500 VRB04KT P6SM FEW025 SCT050
     FM300800 12004KT P6SM FEW025 SCT040
      AMD NOT SKED AFT 300400=

USA.gov is the U.S. government's official web portal to all federal, state and local government web resources and services.